createdAt,value
2022-11-13T00:00:38.664Z,57.50
2022-11-13T00:03:06.124Z,57.64
2022-11-13T00:05:33.617Z,57.71
2022-11-13T00:08:01.194Z,57.56
2022-11-13T00:10:28.647Z,57.75
2022-11-13T00:12:56.175Z,57.67
2022-11-13T00:15:23.664Z,57.76
2022-11-13T00:17:52.428Z,57.79
2022-11-13T00:20:20.009Z,57.65
2022-11-13T00:22:48.008Z,57.70
2022-11-13T00:25:15.557Z,57.63
2022-11-13T00:27:42.981Z,57.61
2022-11-13T00:30:16.331Z,57.70
2022-11-13T00:32:46.419Z,57.69
2022-11-13T00:35:15.231Z,57.66
2022-11-13T00:37:42.678Z,57.57
2022-11-13T00:40:11.067Z,57.62
2022-11-13T00:42:38.500Z,57.52
2022-11-13T00:45:08.942Z,57.61
2022-11-13T00:47:36.469Z,57.43
2022-11-13T00:50:04.131Z,57.53
2022-11-13T00:52:32.885Z,57.37
2022-11-13T00:55:00.329Z,57.40
2022-11-13T00:57:27.781Z,57.45
2022-11-13T00:59:55.229Z,57.52
2022-11-13T01:02:22.659Z,57.51
2022-11-13T01:04:50.085Z,57.63
2022-11-13T01:07:17.551Z,57.38
2022-11-13T01:09:50.664Z,57.49
2022-11-13T01:12:18.114Z,57.37
2022-11-13T01:14:45.548Z,57.62
2022-11-13T01:17:12.993Z,57.42
2022-11-13T01:19:40.450Z,57.37
2022-11-13T01:22:07.896Z,57.44
2022-11-13T01:24:35.329Z,57.29
2022-11-13T01:27:04.098Z,57.39
2022-11-13T01:29:31.555Z,57.43
2022-11-13T01:31:58.987Z,57.22
2022-11-13T01:34:26.470Z,57.25
2022-11-13T01:36:53.906Z,57.25
2022-11-13T01:39:21.341Z,57.37
2022-11-13T01:41:48.820Z,57.31
2022-11-13T01:44:18.435Z,57.16
2022-11-13T01:46:46.974Z,57.17
2022-11-13T01:49:20.229Z,57.31
2022-11-13T01:51:48.929Z,57.27
2022-11-13T01:54:17.565Z,57.38
2022-11-13T01:56:45.011Z,57.34
2022-11-13T01:59:13.777Z,57.15
2022-11-13T02:01:42.735Z,57.13
2022-11-13T02:04:10.330Z,57.29
2022-11-13T02:06:41.333Z,57.25
2022-11-13T02:09:08.942Z,57.24
2022-11-13T02:11:36.528Z,57.34
2022-11-13T02:14:04.192Z,57.15
2022-11-13T02:16:31.946Z,57.26
2022-11-13T02:19:00.743Z,57.22
2022-11-13T02:21:33.429Z,57.21
2022-11-13T02:24:06.772Z,57.31
2022-11-13T02:26:35.550Z,57.08
2022-11-13T02:29:02.994Z,57.23
2022-11-13T02:31:30.429Z,57.07
2022-11-13T02:33:57.876Z,57.07
2022-11-13T02:36:25.331Z,57.45
2022-11-13T02:38:53.334Z,57.02
2022-11-13T02:41:20.774Z,57.07
2022-11-13T02:43:49.537Z,57.17
2022-11-13T02:46:17.010Z,57.17
2022-11-13T02:48:44.556Z,57.06
2022-11-13T02:51:12.002Z,57.06
2022-11-13T02:53:39.460Z,57.16
2022-11-13T02:56:07.532Z,57.00
2022-11-13T02:58:34.992Z,57.22
2022-11-13T03:01:04.354Z,57.05
2022-11-13T03:03:56.570Z,57.19
2022-11-13T03:06:19.230Z,57.19
2022-11-13T03:08:46.659Z,57.29
2022-11-13T03:11:14.114Z,57.09
2022-11-13T03:13:41.757Z,57.27
2022-11-13T03:16:11.678Z,57.00
2022-11-13T03:18:39.151Z,57.03
2022-11-13T03:21:07.877Z,56.92
2022-11-13T03:23:35.283Z,57.04
2022-11-13T03:26:06.703Z,57.05
2022-11-13T03:28:34.303Z,56.83
2022-11-13T03:31:01.776Z,57.02
2022-11-13T03:33:30.636Z,56.99
2022-11-13T03:35:58.116Z,56.93
2022-11-13T03:38:26.053Z,57.12
2022-11-13T03:40:53.743Z,57.08
2022-11-13T03:43:21.163Z,57.06
2022-11-13T03:45:48.742Z,56.98
2022-11-13T03:48:16.418Z,56.83
2022-11-13T03:50:46.324Z,57.10
2022-11-13T03:53:13.804Z,57.12
2022-11-13T03:55:41.305Z,57.16
2022-11-13T03:58:08.871Z,57.08
2022-11-13T04:00:36.369Z,56.98
2022-11-13T04:03:03.833Z,56.93
2022-11-13T04:05:31.413Z,57.16
2022-11-13T04:08:00.164Z,57.11
2022-11-13T04:10:27.654Z,57.10
2022-11-13T04:12:55.064Z,56.82
2022-11-13T04:15:22.537Z,57.12
2022-11-13T04:17:50.003Z,56.95
2022-11-13T04:20:17.800Z,57.07
2022-11-13T04:22:45.301Z,56.92
2022-11-13T04:25:14.060Z,57.07
2022-11-13T04:27:41.496Z,56.97
2022-11-13T04:30:10.153Z,56.98
2022-11-13T04:32:37.611Z,56.98
2022-11-13T04:35:05.685Z,56.91
2022-11-13T04:37:33.117Z,56.88
2022-11-13T04:40:00.545Z,56.87
2022-11-13T04:42:46.935Z,56.78
2022-11-13T04:45:14.387Z,56.96
2022-11-13T04:47:41.815Z,56.85
2022-11-13T04:50:10.001Z,56.97
2022-11-13T04:52:37.437Z,56.95
2022-11-13T04:55:06.580Z,56.93
2022-11-13T04:57:35.335Z,56.95
2022-11-13T05:00:02.914Z,56.64
2022-11-13T05:02:30.343Z,56.97
2022-11-13T05:05:03.353Z,56.87
2022-11-13T05:07:32.282Z,56.92
2022-11-13T05:09:59.743Z,57.10
2022-11-13T05:12:27.185Z,57.22
2022-11-13T05:14:55.951Z,57.09
2022-11-13T05:17:23.935Z,56.94
2022-11-13T05:19:51.388Z,56.84
2022-11-13T05:22:18.823Z,56.72
2022-11-13T05:24:46.284Z,56.77
2022-11-13T05:27:17.245Z,56.73
2022-11-13T05:29:45.274Z,56.79
2022-11-13T05:32:14.039Z,56.56
2022-11-13T05:34:41.477Z,56.62
2022-11-13T05:37:08.898Z,56.80
2022-11-13T05:39:36.332Z,56.76
2022-11-13T05:42:03.941Z,56.82
2022-11-13T05:44:31.388Z,56.68
2022-11-13T05:46:58.862Z,56.82
2022-11-13T05:49:27.637Z,56.49
2022-11-13T05:51:55.247Z,56.65
2022-11-13T05:54:22.658Z,56.22
2022-11-13T05:56:50.100Z,56.74
2022-11-13T05:59:17.579Z,56.55
2022-11-13T06:01:45.156Z,56.72
2022-11-13T06:04:12.625Z,56.74
2022-11-13T06:06:42.325Z,56.40
2022-11-13T06:09:10.717Z,56.72
2022-11-13T06:11:38.148Z,56.58
2022-11-13T06:14:05.593Z,56.92
2022-11-13T06:16:35.261Z,56.86
2022-11-13T06:19:03.665Z,56.66
2022-11-13T06:21:32.355Z,56.64
2022-11-13T06:24:01.530Z,56.61
2022-11-13T06:26:29.964Z,56.51
2022-11-13T06:28:57.395Z,56.64
2022-11-13T06:31:26.199Z,56.60
2022-11-13T06:33:53.848Z,56.48
2022-11-13T06:36:23.152Z,56.69
2022-11-13T06:38:50.688Z,56.65
2022-11-13T06:41:21.351Z,56.42
2022-11-13T06:43:49.670Z,56.79
2022-11-13T06:46:18.569Z,56.54
2022-11-13T06:48:46.188Z,56.76
2022-11-13T06:51:15.292Z,56.49
2022-11-13T06:53:42.741Z,56.72
2022-11-13T06:56:10.203Z,56.55
2022-11-13T06:58:39.010Z,56.69
2022-11-13T07:01:07.512Z,56.51
2022-11-13T07:03:35.016Z,56.60
2022-11-13T07:06:03.208Z,56.70
2022-11-13T07:08:30.950Z,56.32
2022-11-13T07:10:58.733Z,56.34
2022-11-13T07:13:26.444Z,56.47
2022-11-13T07:15:55.184Z,56.23
2022-11-13T07:18:24.250Z,56.19
2022-11-13T07:20:51.837Z,56.43
2022-11-13T07:23:19.268Z,56.59
2022-11-13T07:25:46.718Z,56.53
2022-11-13T07:28:14.171Z,56.34
2022-11-13T07:30:41.613Z,56.45
2022-11-13T07:33:10.377Z,56.35
2022-11-13T07:35:37.829Z,56.36
2022-11-13T07:38:05.291Z,56.42
2022-11-13T07:40:32.729Z,56.29
2022-11-13T07:43:00.496Z,56.38
2022-11-13T07:45:28.880Z,56.26
2022-11-13T07:47:59.018Z,56.12
2022-11-13T07:50:28.007Z,56.23
2022-11-13T07:52:58.716Z,56.16
2022-11-13T07:55:26.150Z,56.27
2022-11-13T07:57:56.437Z,56.07
2022-11-13T08:00:24.210Z,56.26
2022-11-13T08:02:51.653Z,56.27
2022-11-13T08:05:19.117Z,56.09
2022-11-13T08:07:51.437Z,56.34
2022-11-13T08:10:19.761Z,56.14
2022-11-13T08:12:47.399Z,56.07
2022-11-13T08:15:14.884Z,56.01
2022-11-13T08:17:42.363Z,56.41
2022-11-13T08:20:11.024Z,56.16
2022-11-13T08:22:38.458Z,56.14
2022-11-13T08:25:07.860Z,56.16
2022-11-13T08:27:35.321Z,56.14
2022-11-13T08:30:02.782Z,56.12
2022-11-13T08:32:30.251Z,55.97
2022-11-13T08:34:57.697Z,56.02
2022-11-13T08:37:25.149Z,55.92
2022-11-13T08:39:52.615Z,56.16
2022-11-13T08:42:21.372Z,56.14
2022-11-13T08:44:48.828Z,55.95
2022-11-13T08:47:16.318Z,55.96
2022-11-13T08:49:43.784Z,56.01
2022-11-13T08:52:11.229Z,56.07
2022-11-13T08:54:38.660Z,55.93
2022-11-13T08:57:06.368Z,56.04
2022-11-13T08:59:35.141Z,55.97
2022-11-13T09:02:02.614Z,56.03
2022-11-13T09:04:30.054Z,56.07
2022-11-13T09:06:57.569Z,56.04
2022-11-13T09:09:25.025Z,56.11
2022-11-13T09:11:52.486Z,56.11
2022-11-13T09:14:20.062Z,56.21
2022-11-13T09:16:48.828Z,56.14
2022-11-13T09:19:16.338Z,56.00
2022-11-13T09:21:43.824Z,56.01
2022-11-13T09:24:11.327Z,56.07
2022-11-13T09:26:38.771Z,55.97
2022-11-13T09:29:06.199Z,56.03
2022-11-13T09:31:33.651Z,56.08
2022-11-13T09:34:02.400Z,56.06
2022-11-13T09:36:29.852Z,55.93
2022-11-13T09:38:57.439Z,55.97
2022-11-13T09:41:26.568Z,55.97
2022-11-13T09:43:59.563Z,56.01
2022-11-13T09:46:34.098Z,55.93
2022-11-13T09:49:05.050Z,55.75
2022-11-13T09:51:34.501Z,55.54
2022-11-13T09:54:04.803Z,55.59
2022-11-13T09:56:34.037Z,55.73
2022-11-13T09:59:09.100Z,55.72
2022-11-13T10:01:44.317Z,55.65
2022-11-13T10:04:14.486Z,55.54
2022-11-13T10:06:52.904Z,55.63
2022-11-13T10:09:33.832Z,55.51
2022-11-13T10:12:03.180Z,55.35
2022-11-13T10:14:32.560Z,55.39
2022-11-13T10:17:02.083Z,55.20
2022-11-13T10:19:32.218Z,55.24
2022-11-13T10:22:31.132Z,55.05
2022-11-13T10:24:49.828Z,54.85
2022-11-13T10:27:17.384Z,55.03
2022-11-13T10:29:49.039Z,54.87
2022-11-13T10:32:18.659Z,54.90
2022-11-13T10:34:49.904Z,54.89
2022-11-13T10:37:25.373Z,54.82
2022-11-13T10:39:52.816Z,54.68
2022-11-13T10:42:22.028Z,54.48
2022-11-13T10:44:54.394Z,54.65
2022-11-13T10:47:42.813Z,54.26
2022-11-13T10:50:12.282Z,54.39
2022-11-13T10:52:45.489Z,54.38
2022-11-13T10:55:17.082Z,54.22
2022-11-13T10:57:47.176Z,54.36
2022-11-13T11:00:22.114Z,54.22
2022-11-13T11:02:49.822Z,54.35
2022-11-13T11:05:19.703Z,54.47
2022-11-13T11:07:47.240Z,54.41
2022-11-13T11:10:21.512Z,54.33
2022-11-13T11:12:52.787Z,54.47
2022-11-13T11:15:23.327Z,54.30
2022-11-13T11:17:51.814Z,54.63
2022-11-13T11:20:24.692Z,54.61
2022-11-13T11:22:53.785Z,54.65
2022-11-13T11:25:27.208Z,54.70
2022-11-13T11:27:57.765Z,54.80
2022-11-13T11:30:26.440Z,54.89
2022-11-13T11:32:57.601Z,54.87
2022-11-13T11:35:29.172Z,55.04
2022-11-13T11:37:59.564Z,55.09
2022-11-13T11:40:28.988Z,55.03
2022-11-13T11:43:00.237Z,55.11
2022-11-13T11:45:29.978Z,55.04
2022-11-13T11:47:57.485Z,55.24
2022-11-13T11:50:38.681Z,55.40
2022-11-13T11:53:09.072Z,55.30
2022-11-13T11:55:59.896Z,55.30
2022-11-13T11:58:35.969Z,55.41
2022-11-13T12:01:06.401Z,55.42
2022-11-13T12:04:03.304Z,55.27
2022-11-13T12:06:37.814Z,55.49
2022-11-13T12:09:10.122Z,55.34
2022-11-13T12:11:39.900Z,55.47
2022-11-13T12:14:11.032Z,55.56
2022-11-13T12:16:45.607Z,55.50
2022-11-13T12:19:17.898Z,55.43
2022-11-13T12:21:49.336Z,55.35
2022-11-13T12:24:28.945Z,55.48
2022-11-13T12:27:04.573Z,55.54
2022-11-13T12:29:41.711Z,55.24
2022-11-13T12:32:15.073Z,55.41
2022-11-13T12:34:44.106Z,55.51
2022-11-13T12:37:14.613Z,55.49
2022-11-13T12:39:45.102Z,55.41
2022-11-13T12:42:17.646Z,55.39
2022-11-13T12:44:50.127Z,55.51
2022-11-13T12:47:17.797Z,55.64
2022-11-13T12:49:45.233Z,55.55
2022-11-13T12:52:22.664Z,55.51
2022-11-13T12:54:52.087Z,55.49
2022-11-13T12:57:27.172Z,55.85
2022-11-13T12:59:58.037Z,55.58
2022-11-13T13:02:47.394Z,55.54
2022-11-13T13:05:19.983Z,55.67
2022-11-13T13:08:07.066Z,55.71
2022-11-13T13:10:37.390Z,55.49
2022-11-13T13:13:11.164Z,55.55
2022-11-13T13:15:39.592Z,55.57
2022-11-13T13:18:10.952Z,55.61
2022-11-13T13:20:39.257Z,55.57
2022-11-13T13:23:11.788Z,55.68
2022-11-13T13:25:39.216Z,55.65
2022-11-13T13:28:19.446Z,55.69
2022-11-13T13:30:48.630Z,55.62
2022-11-13T13:33:20.909Z,55.67
2022-11-13T13:35:53.018Z,55.71
2022-11-13T13:38:25.090Z,55.69
2022-11-13T13:41:01.922Z,55.60
2022-11-13T13:45:53.608Z,55.68
2022-11-13T13:48:22.630Z,55.75
2022-11-13T13:50:50.383Z,55.69
2022-11-13T13:53:19.580Z,55.65
2022-11-13T13:55:50.322Z,55.73
2022-11-13T13:58:20.731Z,55.68
2022-11-13T14:01:17.006Z,55.86
2022-11-13T14:03:43.568Z,55.76
2022-11-13T14:06:18.142Z,55.86
2022-11-13T14:08:45.856Z,55.99
2022-11-13T14:11:22.406Z,56.07
2022-11-13T14:13:49.890Z,56.12
2022-11-13T14:16:17.598Z,56.09
2022-11-13T14:18:45.124Z,56.22
2022-11-13T14:21:15.958Z,56.34
2022-11-13T14:23:45.061Z,56.32
2022-11-13T14:26:12.602Z,56.25
2022-11-13T14:28:54.950Z,56.21
2022-11-13T14:31:27.220Z,56.24
2022-11-13T14:33:54.701Z,56.35
2022-11-13T14:36:26.838Z,56.36
2022-11-13T14:38:54.514Z,56.45
2022-11-13T14:41:23.418Z,56.46
2022-11-13T14:43:52.660Z,56.38
2022-11-13T14:46:38.554Z,56.49
2022-11-13T14:49:13.729Z,56.52
2022-11-13T14:51:41.280Z,56.57
2022-11-13T14:54:27.125Z,56.62
2022-11-13T14:56:54.636Z,56.72
2022-11-13T14:59:28.097Z,56.98
2022-11-13T15:01:55.903Z,56.88
2022-11-13T15:04:23.363Z,56.87
2022-11-13T15:06:55.329Z,56.94
2022-11-13T15:09:23.476Z,57.10
2022-11-13T15:11:50.973Z,57.18
2022-11-13T15:14:19.320Z,57.32
2022-11-13T15:16:48.762Z,57.47
2022-11-13T15:19:17.382Z,57.48
2022-11-13T15:22:05.562Z,57.35
2022-11-13T15:24:32.588Z,57.50
2022-11-13T15:27:00.143Z,57.51
2022-11-13T15:29:27.601Z,57.55
2022-11-13T15:31:57.262Z,57.53
2022-11-13T15:34:24.895Z,57.55
2022-11-13T15:36:52.377Z,57.70
2022-11-13T15:39:23.685Z,57.74
2022-11-13T15:41:51.631Z,57.60
2022-11-13T15:44:19.380Z,57.77
2022-11-13T15:46:47.313Z,57.61
2022-11-13T15:49:16.086Z,57.55
2022-11-13T15:51:45.782Z,57.80
2022-11-13T15:54:16.235Z,57.85
2022-11-13T15:56:44.083Z,57.92
2022-11-13T15:59:12.786Z,57.84
2022-11-13T16:01:40.448Z,57.92
2022-11-13T16:04:08.096Z,58.03
2022-11-13T16:06:36.925Z,57.79
2022-11-13T16:09:04.746Z,57.86
2022-11-13T16:11:32.831Z,57.83
2022-11-13T16:14:00.358Z,57.47
2022-11-13T16:16:29.152Z,57.59
2022-11-13T16:19:00.205Z,57.64
2022-11-13T16:21:28.113Z,57.86
2022-11-13T16:23:56.921Z,57.87
2022-11-13T16:26:25.945Z,58.01
2022-11-13T16:29:13.626Z,58.08
2022-11-13T16:31:41.515Z,57.97
2022-11-13T16:34:09.024Z,57.99
2022-11-13T16:36:36.539Z,58.09
2022-11-13T16:39:05.447Z,58.01
2022-11-13T16:41:33.060Z,58.21
2022-11-13T16:44:00.547Z,58.09
2022-11-13T16:46:29.702Z,58.25
2022-11-13T16:48:57.194Z,58.25
2022-11-13T16:51:24.724Z,58.37
2022-11-13T16:53:52.176Z,58.30
2022-11-13T16:56:24.625Z,58.30
2022-11-13T16:58:52.193Z,58.29
2022-11-13T17:01:22.285Z,58.38
2022-11-13T17:03:49.675Z,58.58
2022-11-13T17:06:21.412Z,58.39
2022-11-13T17:08:52.175Z,58.36
2022-11-13T17:11:20.998Z,58.47
2022-11-13T17:13:50.241Z,58.22
2022-11-13T17:16:17.934Z,58.31
2022-11-13T17:18:45.520Z,58.41
2022-11-13T17:21:13.039Z,58.25
2022-11-13T17:23:40.508Z,58.27
2022-11-13T17:26:08.029Z,58.41
2022-11-13T17:28:37.065Z,58.15
2022-11-13T17:31:04.879Z,58.29
2022-11-13T17:33:32.612Z,58.28
2022-11-13T17:36:00.930Z,58.22
2022-11-13T17:38:28.565Z,58.08
2022-11-13T17:40:56.057Z,58.19
2022-11-13T17:43:23.573Z,57.83
2022-11-13T17:45:52.488Z,57.78
2022-11-13T17:48:19.990Z,57.79
2022-11-13T17:50:56.781Z,57.77
2022-11-13T17:53:24.313Z,58.01
2022-11-13T17:55:55.215Z,57.88
2022-11-13T17:58:22.747Z,58.05
2022-11-13T18:00:51.671Z,58.02
2022-11-13T18:03:19.255Z,58.05
2022-11-13T18:05:47.006Z,58.31
2022-11-13T18:08:14.588Z,58.30
2022-11-13T18:10:42.756Z,58.11
2022-11-13T18:13:10.583Z,58.26
2022-11-13T18:15:38.837Z,58.25
2022-11-13T18:18:08.279Z,58.32
2022-11-13T18:20:35.805Z,58.37
2022-11-13T18:23:03.312Z,58.42
2022-11-13T18:25:33.258Z,58.23
2022-11-13T18:28:04.274Z,58.33
2022-11-13T18:30:31.778Z,58.48
2022-11-13T18:32:59.237Z,58.36
2022-11-13T18:35:28.024Z,58.28
2022-11-13T18:37:56.481Z,58.46
2022-11-13T18:40:24.003Z,58.11
2022-11-13T18:42:51.836Z,58.62
2022-11-13T18:45:19.288Z,58.27
2022-11-13T18:47:46.764Z,58.34
2022-11-13T18:50:14.224Z,58.29
2022-11-13T18:52:43.060Z,58.26
2022-11-13T18:55:10.559Z,58.29
2022-11-13T18:57:38.055Z,58.22
2022-11-13T19:00:06.367Z,58.15
2022-11-13T19:02:33.826Z,57.95
2022-11-13T19:05:01.309Z,58.02
2022-11-13T19:07:28.859Z,58.26
2022-11-13T19:09:57.775Z,58.04
2022-11-13T19:12:25.261Z,58.08
2022-11-13T19:14:52.756Z,58.22
2022-11-13T19:17:20.220Z,58.32
2022-11-13T19:19:47.681Z,58.48
2022-11-13T19:22:15.155Z,58.25
2022-11-13T19:24:42.611Z,58.17
2022-11-13T19:27:11.411Z,58.46
2022-11-13T19:29:39.021Z,58.39
2022-11-13T19:32:06.584Z,58.29
2022-11-13T19:34:34.066Z,58.40
2022-11-13T19:37:01.518Z,58.39
2022-11-13T19:39:29.004Z,58.26
2022-11-13T19:41:56.463Z,58.25
2022-11-13T19:44:25.260Z,58.37
2022-11-13T19:46:53.397Z,58.34
2022-11-13T19:49:20.905Z,58.35
2022-11-13T19:51:48.356Z,58.36
2022-11-13T19:54:16.861Z,58.34
2022-11-13T19:56:44.348Z,58.31
2022-11-13T19:59:12.241Z,58.33
2022-11-13T20:01:41.176Z,58.45
2022-11-13T20:04:10.476Z,58.32
2022-11-13T20:06:37.983Z,58.33
2022-11-13T20:09:05.541Z,58.31
2022-11-13T20:11:33.903Z,58.50
2022-11-13T20:14:01.492Z,58.46
2022-11-13T20:16:30.089Z,58.39
2022-11-13T20:18:58.922Z,58.31
2022-11-13T20:21:26.594Z,58.34
2022-11-13T20:23:55.542Z,58.39
2022-11-13T20:26:23.090Z,58.51
2022-11-13T20:28:50.589Z,58.45
2022-11-13T20:31:20.292Z,58.53
2022-11-13T20:33:48.149Z,58.55
2022-11-13T20:36:17.391Z,58.48
2022-11-13T20:38:45.395Z,58.55
2022-11-13T20:41:12.975Z,58.54
2022-11-13T20:43:40.491Z,58.61
2022-11-13T20:46:10.069Z,58.61
2022-11-13T20:48:37.623Z,58.63
2022-11-13T20:51:08.817Z,58.79
2022-11-13T20:53:37.699Z,58.71
2022-11-13T20:56:05.671Z,58.55
2022-11-13T20:58:33.169Z,58.66
2022-11-13T21:01:04.242Z,58.55
2022-11-13T21:03:32.636Z,58.63
2022-11-13T21:06:01.513Z,58.34
2022-11-13T21:08:29.251Z,58.56
2022-11-13T21:10:59.679Z,58.57
2022-11-13T21:13:27.018Z,58.55
2022-11-13T21:15:54.676Z,58.58
2022-11-13T21:18:22.139Z,58.74
2022-11-13T21:20:49.635Z,58.64
2022-11-13T21:23:17.168Z,58.71
2022-11-13T21:25:44.677Z,58.80
2022-11-13T21:28:13.565Z,58.61
2022-11-13T21:30:41.070Z,58.69
2022-11-13T21:33:08.565Z,58.95
2022-11-13T21:35:36.089Z,59.01
2022-11-13T21:38:05.208Z,58.79
2022-11-13T21:40:32.748Z,58.67
2022-11-13T21:43:00.294Z,58.75
2022-11-13T21:45:29.129Z,58.92
2022-11-13T21:47:56.741Z,58.82
2022-11-13T21:50:24.248Z,59.06
2022-11-13T21:52:51.813Z,59.11
2022-11-13T21:55:19.458Z,59.03
2022-11-13T21:57:46.956Z,58.89
2022-11-13T22:00:15.995Z,59.09
2022-11-13T22:02:44.845Z,59.02
2022-11-13T22:05:12.380Z,58.87
2022-11-13T22:07:39.919Z,58.87
2022-11-13T22:10:08.651Z,58.73
2022-11-13T22:12:36.298Z,58.88
2022-11-13T22:15:03.792Z,58.89
2022-11-13T22:17:31.302Z,58.73
2022-11-13T22:20:00.238Z,58.88
2022-11-13T22:22:27.911Z,58.79
2022-11-13T22:24:55.533Z,58.56
2022-11-13T22:27:23.003Z,58.60
2022-11-13T22:29:50.524Z,58.73
2022-11-13T22:32:18.048Z,58.48
2022-11-13T22:34:45.529Z,58.63
2022-11-13T22:37:14.883Z,58.69
2022-11-13T22:39:42.636Z,58.36
2022-11-13T22:42:10.194Z,58.61
2022-11-13T22:44:54.835Z,58.55
2022-11-13T22:47:23.258Z,58.59
2022-11-13T22:49:50.797Z,58.51
2022-11-13T22:52:19.732Z,58.59
2022-11-13T22:54:47.298Z,58.50
2022-11-13T22:57:14.957Z,58.41
2022-11-13T22:59:42.508Z,58.43
2022-11-13T23:02:10.096Z,58.54
2022-11-13T23:04:37.671Z,58.38
2022-11-13T23:07:05.263Z,58.27
2022-11-13T23:09:34.174Z,58.24
2022-11-13T23:12:01.677Z,58.34
2022-11-13T23:14:29.222Z,58.35
2022-11-13T23:16:56.736Z,58.19
2022-11-13T23:19:24.246Z,58.03
2022-11-13T23:21:51.760Z,58.18
2022-11-13T23:24:19.306Z,58.16
2022-11-13T23:26:48.164Z,58.18
2022-11-13T23:29:15.691Z,57.73
2022-11-13T23:31:43.208Z,57.85
2022-11-13T23:34:10.727Z,58.01
2022-11-13T23:36:38.253Z,58.06
2022-11-13T23:39:05.777Z,58.17
2022-11-13T23:41:33.332Z,58.19
2022-11-13T23:44:08.798Z,57.99
2022-11-13T23:46:36.916Z,57.66
2022-11-13T23:49:04.466Z,57.91
2022-11-13T23:51:32.069Z,57.93
2022-11-13T23:53:59.791Z,58.00
2022-11-13T23:56:27.264Z,58.19
2022-11-13T23:58:54.789Z,58.02
